sensor_id;sensor_type;location;lat;lon;timestamp;temperature;humidity
3262;DHT22;1643;47.746;9.000;2023-02-15T00:00:04;3.00;99.90
3262;DHT22;1643;47.746;9.000;2023-02-15T00:02:31;3.00;99.90
3262;DHT22;1643;47.746;9.000;2023-02-15T00:04:56;2.80;99.90
3262;DHT22;1643;47.746;9.000;2023-02-15T00:07:22;2.80;99.90
3262;DHT22;1643;47.746;9.000;2023-02-15T00:09:47;2.70;99.90
3262;DHT22;1643;47.746;9.000;2023-02-15T00:12:14;2.80;99.90
3262;DHT22;1643;47.746;9.000;2023-02-15T00:14:40;2.80;99.90
3262;DHT22;1643;47.746;9.000;2023-02-15T00:17:07;2.70;99.90
3262;DHT22;1643;47.746;9.000;2023-02-15T00:19:33;2.50;99.90
3262;DHT22;1643;47.746;9.000;2023-02-15T00:21:58;2.40;99.90
3262;DHT22;1643;47.746;9.000;2023-02-15T00:24:24;2.40;99.90
3262;DHT22;1643;47.746;9.000;2023-02-15T00:26:50;2.50;99.90
3262;DHT22;1643;47.746;9.000;2023-02-15T00:29:17;2.60;99.90
3262;DHT22;1643;47.746;9.000;2023-02-15T00:31:42;2.70;99.90
3262;DHT22;1643;47.746;9.000;2023-02-15T00:34:17;2.70;99.90
3262;DHT22;1643;47.746;9.000;2023-02-15T00:36:44;2.60;99.90
3262;DHT22;1643;47.746;9.000;2023-02-15T00:39:10;2.70;99.90
3262;DHT22;1643;47.746;9.000;2023-02-15T00:41:36;2.70;99.90
3262;DHT22;1643;47.746;9.000;2023-02-15T00:44:01;2.80;99.90
3262;DHT22;1643;47.746;9.000;2023-02-15T00:46:27;2.80;99.90
3262;DHT22;1643;47.746;9.000;2023-02-15T00:48:53;2.80;99.90
3262;DHT22;1643;47.746;9.000;2023-02-15T00:51:19;2.80;99.90
3262;DHT22;1643;47.746;9.000;2023-02-15T00:53:46;2.80;99.90
3262;DHT22;1643;47.746;9.000;2023-02-15T00:56:12;2.70;99.90
3262;DHT22;1643;47.746;9.000;2023-02-15T00:58:37;2.60;99.90
3262;DHT22;1643;47.746;9.000;2023-02-15T01:01:08;2.50;99.90
3262;DHT22;1643;47.746;9.000;2023-02-15T01:03:34;2.50;99.90
3262;DHT22;1643;47.746;9.000;2023-02-15T01:06:00;2.40;99.90
3262;DHT22;1643;47.746;9.000;2023-02-15T01:08:26;2.30;99.90
3262;DHT22;1643;47.746;9.000;2023-02-15T01:10:53;2.50;99.90
3262;DHT22;1643;47.746;9.000;2023-02-15T01:13:19;2.40;99.90
3262;DHT22;1643;47.746;9.000;2023-02-15T01:15:44;2.30;99.90
3262;DHT22;1643;47.746;9.000;2023-02-15T01:18:11;2.20;99.90
3262;DHT22;1643;47.746;9.000;2023-02-15T01:20:39;2.20;99.90
3262;DHT22;1643;47.746;9.000;2023-02-15T01:23:07;2.20;99.90
3262;DHT22;1643;47.746;9.000;2023-02-15T01:25:34;2.20;99.90
3262;DHT22;1643;47.746;9.000;2023-02-15T01:28:00;2.10;99.90
3262;DHT22;1643;47.746;9.000;2023-02-15T01:30:26;2.20;99.90
3262;DHT22;1643;47.746;9.000;2023-02-15T01:32:52;2.10;99.90
3262;DHT22;1643;47.746;9.000;2023-02-15T01:35:18;2.10;99.90
3262;DHT22;1643;47.746;9.000;2023-02-15T01:37:44;2.20;99.90
3262;DHT22;1643;47.746;9.000;2023-02-15T01:40:13;2.10;99.90
3262;DHT22;1643;47.746;9.000;2023-02-15T01:42:40;2.10;99.90
3262;DHT22;1643;47.746;9.000;2023-02-15T01:45:21;2.00;99.90
3262;DHT22;1643;47.746;9.000;2023-02-15T01:58:53;2.10;99.90
3262;DHT22;1643;47.746;9.000;2023-02-15T02:01:21;2.20;99.90
3262;DHT22;1643;47.746;9.000;2023-02-15T02:04:09;2.10;99.90
3262;DHT22;1643;47.746;9.000;2023-02-15T02:06:37;2.10;99.90
3262;DHT22;1643;47.746;9.000;2023-02-15T02:09:04;1.90;99.90
3262;DHT22;1643;47.746;9.000;2023-02-15T02:11:30;1.90;99.90
3262;DHT22;1643;47.746;9.000;2023-02-15T02:13:56;1.90;99.90
3262;DHT22;1643;47.746;9.000;2023-02-15T02:24:38;1.90;99.90
3262;DHT22;1643;47.746;9.000;2023-02-15T02:35:42;2.10;99.90
3262;DHT22;1643;47.746;9.000;2023-02-15T02:38:23;2.10;99.90
3262;DHT22;1643;47.746;9.000;2023-02-15T02:43:29;2.20;99.90
3262;DHT22;1643;47.746;9.000;2023-02-15T02:46:01;2.20;99.90
3262;DHT22;1643;47.746;9.000;2023-02-15T02:48:30;2.10;99.90
3262;DHT22;1643;47.746;9.000;2023-02-15T02:50:57;2.10;99.90
3262;DHT22;1643;47.746;9.000;2023-02-15T02:53:23;2.00;99.90
3262;DHT22;1643;47.746;9.000;2023-02-15T02:56:23;1.90;99.90
3262;DHT22;1643;47.746;9.000;2023-02-15T03:01:34;2.10;99.90
3262;DHT22;1643;47.746;9.000;2023-02-15T03:04:11;2.00;99.90
3262;DHT22;1643;47.746;9.000;2023-02-15T03:09:31;2.20;99.90
3262;DHT22;1643;47.746;9.000;2023-02-15T03:12:11;2.20;99.90
3262;DHT22;1643;47.746;9.000;2023-02-15T03:14:40;2.20;99.90
3262;DHT22;1643;47.746;9.000;2023-02-15T03:17:07;2.20;99.90
3262;DHT22;1643;47.746;9.000;2023-02-15T03:19:36;2.20;99.90
3262;DHT22;1643;47.746;9.000;2023-02-15T03:22:21;2.30;99.90
3262;DHT22;1643;47.746;9.000;2023-02-15T03:27:45;2.30;99.90
3262;DHT22;1643;47.746;9.000;2023-02-15T03:30:13;2.20;99.90
3262;DHT22;1643;47.746;9.000;2023-02-15T03:32:40;2.20;99.90
3262;DHT22;1643;47.746;9.000;2023-02-15T03:35:07;2.20;99.90
3262;DHT22;1643;47.746;9.000;2023-02-15T03:40:18;2.20;99.90
3262;DHT22;1643;47.746;9.000;2023-02-15T03:45:55;2.30;99.90
3262;DHT22;1643;47.746;9.000;2023-02-15T03:48:28;2.20;99.90
3262;DHT22;1643;47.746;9.000;2023-02-15T03:50:58;2.10;99.90
3262;DHT22;1643;47.746;9.000;2023-02-15T03:53:45;2.10;99.90
3262;DHT22;1643;47.746;9.000;2023-02-15T03:56:12;2.00;99.90
3262;DHT22;1643;47.746;9.000;2023-02-15T03:58:38;2.10;99.90
3262;DHT22;1643;47.746;9.000;2023-02-15T04:01:35;2.20;99.90
3262;DHT22;1643;47.746;9.000;2023-02-15T04:04:27;2.20;99.90
3262;DHT22;1643;47.746;9.000;2023-02-15T04:06:53;2.20;99.90
3262;DHT22;1643;47.746;9.000;2023-02-15T04:09:19;2.30;99.90
3262;DHT22;1643;47.746;9.000;2023-02-15T04:12:03;2.20;99.90
3262;DHT22;1643;47.746;9.000;2023-02-15T04:14:29;2.20;99.90
3262;DHT22;1643;47.746;9.000;2023-02-15T04:17:13;2.20;99.90
3262;DHT22;1643;47.746;9.000;2023-02-15T04:19:38;2.20;99.90
3262;DHT22;1643;47.746;9.000;2023-02-15T04:22:23;2.00;99.90
3262;DHT22;1643;47.746;9.000;2023-02-15T04:25:07;1.90;99.90
3262;DHT22;1643;47.746;9.000;2023-02-15T04:27:40;1.90;99.90
3262;DHT22;1643;47.746;9.000;2023-02-15T04:30:06;1.90;99.90
3262;DHT22;1643;47.746;9.000;2023-02-15T04:32:32;1.90;99.90
3262;DHT22;1643;47.746;9.000;2023-02-15T04:34:58;1.90;99.90
3262;DHT22;1643;47.746;9.000;2023-02-15T04:37:23;1.90;99.90
3262;DHT22;1643;47.746;9.000;2023-02-15T04:39:49;1.80;99.90
3262;DHT22;1643;47.746;9.000;2023-02-15T04:42:15;1.70;99.90
3262;DHT22;1643;47.746;9.000;2023-02-15T04:44:42;1.70;99.90
3262;DHT22;1643;47.746;9.000;2023-02-15T04:47:07;1.70;99.90
3262;DHT22;1643;47.746;9.000;2023-02-15T04:49:33;1.70;99.90
3262;DHT22;1643;47.746;9.000;2023-02-15T04:51:58;1.80;99.90
3262;DHT22;1643;47.746;9.000;2023-02-15T04:54:24;1.90;99.90
3262;DHT22;1643;47.746;9.000;2023-02-15T04:56:50;1.80;99.90
3262;DHT22;1643;47.746;9.000;2023-02-15T04:59:15;1.60;99.90
3262;DHT22;1643;47.746;9.000;2023-02-15T05:01:41;1.60;99.90
3262;DHT22;1643;47.746;9.000;2023-02-15T05:04:06;1.70;99.90
3262;DHT22;1643;47.746;9.000;2023-02-15T05:06:32;1.80;99.90
3262;DHT22;1643;47.746;9.000;2023-02-15T05:08:58;1.70;99.90
3262;DHT22;1643;47.746;9.000;2023-02-15T05:11:26;1.70;99.90
3262;DHT22;1643;47.746;9.000;2023-02-15T05:13:52;1.80;99.90
3262;DHT22;1643;47.746;9.000;2023-02-15T05:16:18;1.80;99.90
3262;DHT22;1643;47.746;9.000;2023-02-15T05:18:43;1.80;99.90
3262;DHT22;1643;47.746;9.000;2023-02-15T05:21:09;1.80;99.90
3262;DHT22;1643;47.746;9.000;2023-02-15T05:23:35;1.70;99.90
3262;DHT22;1643;47.746;9.000;2023-02-15T05:26:00;1.60;99.90
3262;DHT22;1643;47.746;9.000;2023-02-15T05:28:45;1.60;99.90
3262;DHT22;1643;47.746;9.000;2023-02-15T05:31:16;1.50;99.90
3262;DHT22;1643;47.746;9.000;2023-02-15T05:33:42;1.50;99.90
3262;DHT22;1643;47.746;9.000;2023-02-15T05:36:08;1.40;99.90
3262;DHT22;1643;47.746;9.000;2023-02-15T05:38:35;1.60;99.90
3262;DHT22;1643;47.746;9.000;2023-02-15T05:41:06;1.70;99.90
3262;DHT22;1643;47.746;9.000;2023-02-15T05:43:32;1.70;99.90
3262;DHT22;1643;47.746;9.000;2023-02-15T05:45:58;1.60;99.90
3262;DHT22;1643;47.746;9.000;2023-02-15T05:48:25;1.50;99.90
3262;DHT22;1643;47.746;9.000;2023-02-15T05:53:28;1.50;99.90
3262;DHT22;1643;47.746;9.000;2023-02-15T05:55:55;1.50;99.90
3262;DHT22;1643;47.746;9.000;2023-02-15T05:58:25;1.70;99.90
3262;DHT22;1643;47.746;9.000;2023-02-15T06:00:51;1.70;99.90
3262;DHT22;1643;47.746;9.000;2023-02-15T06:03:16;1.80;99.90
3262;DHT22;1643;47.746;9.000;2023-02-15T06:05:42;1.80;99.90
3262;DHT22;1643;47.746;9.000;2023-02-15T06:08:08;1.70;99.90
3262;DHT22;1643;47.746;9.000;2023-02-15T06:10:33;1.70;99.90
3262;DHT22;1643;47.746;9.000;2023-02-15T06:12:59;1.60;99.90
3262;DHT22;1643;47.746;9.000;2023-02-15T06:15:24;1.60;99.90
3262;DHT22;1643;47.746;9.000;2023-02-15T06:17:50;1.80;99.90
3262;DHT22;1643;47.746;9.000;2023-02-15T06:20:16;1.80;99.90
3262;DHT22;1643;47.746;9.000;2023-02-15T06:22:41;1.80;99.90
3262;DHT22;1643;47.746;9.000;2023-02-15T06:25:07;1.90;99.90
3262;DHT22;1643;47.746;9.000;2023-02-15T06:27:35;1.90;99.90
3262;DHT22;1643;47.746;9.000;2023-02-15T06:30:01;1.90;99.90
3262;DHT22;1643;47.746;9.000;2023-02-15T06:32:27;1.90;99.90
3262;DHT22;1643;47.746;9.000;2023-02-15T06:34:52;1.90;99.90
3262;DHT22;1643;47.746;9.000;2023-02-15T06:37:18;1.90;99.90
3262;DHT22;1643;47.746;9.000;2023-02-15T06:39:43;1.90;99.90
3262;DHT22;1643;47.746;9.000;2023-02-15T06:42:09;1.90;99.90
3262;DHT22;1643;47.746;9.000;2023-02-15T06:44:35;2.00;99.90
3262;DHT22;1643;47.746;9.000;2023-02-15T06:47:00;2.00;99.90
3262;DHT22;1643;47.746;9.000;2023-02-15T06:49:26;2.00;99.90
3262;DHT22;1643;47.746;9.000;2023-02-15T06:51:52;2.00;99.90
3262;DHT22;1643;47.746;9.000;2023-02-15T06:54:17;2.10;99.90
3262;DHT22;1643;47.746;9.000;2023-02-15T06:56:43;2.00;99.90
3262;DHT22;1643;47.746;9.000;2023-02-15T06:59:09;2.10;99.90
3262;DHT22;1643;47.746;9.000;2023-02-15T07:01:34;2.00;99.90
3262;DHT22;1643;47.746;9.000;2023-02-15T07:04:02;2.10;99.90
3262;DHT22;1643;47.746;9.000;2023-02-15T07:06:31;2.20;99.90
3262;DHT22;1643;47.746;9.000;2023-02-15T07:08:57;2.10;99.90
3262;DHT22;1643;47.746;9.000;2023-02-15T07:11:24;2.20;99.90
3262;DHT22;1643;47.746;9.000;2023-02-15T07:14:08;2.20;99.90
3262;DHT22;1643;47.746;9.000;2023-02-15T07:16:34;2.20;99.90
3262;DHT22;1643;47.746;9.000;2023-02-15T07:18:59;2.20;99.90
3262;DHT22;1643;47.746;9.000;2023-02-15T07:21:25;2.20;99.90
3262;DHT22;1643;47.746;9.000;2023-02-15T07:23:51;2.30;99.90
3262;DHT22;1643;47.746;9.000;2023-02-15T07:26:16;2.30;99.90
3262;DHT22;1643;47.746;9.000;2023-02-15T07:28:42;2.20;99.90
3262;DHT22;1643;47.746;9.000;2023-02-15T07:31:08;2.20;99.90
3262;DHT22;1643;47.746;9.000;2023-02-15T07:33:34;2.30;99.90
3262;DHT22;1643;47.746;9.000;2023-02-15T07:36:02;2.20;99.90
3262;DHT22;1643;47.746;9.000;2023-02-15T07:38:32;2.20;99.90
3262;DHT22;1643;47.746;9.000;2023-02-15T07:41:02;2.20;99.90
3262;DHT22;1643;47.746;9.000;2023-02-15T07:43:29;2.20;99.90
3262;DHT22;1643;47.746;9.000;2023-02-15T07:45:59;2.10;99.90
3262;DHT22;1643;47.746;9.000;2023-02-15T07:48:26;2.10;99.90
3262;DHT22;1643;47.746;9.000;2023-02-15T07:50:51;2.00;99.90
3262;DHT22;1643;47.746;9.000;2023-02-15T07:53:17;2.00;99.90
3262;DHT22;1643;47.746;9.000;2023-02-15T07:55:42;2.00;99.90
3262;DHT22;1643;47.746;9.000;2023-02-15T07:58:08;2.00;99.90
3262;DHT22;1643;47.746;9.000;2023-02-15T08:00:34;2.10;99.90
3262;DHT22;1643;47.746;9.000;2023-02-15T08:03:21;2.00;99.90
3262;DHT22;1643;47.746;9.000;2023-02-15T08:05:47;2.10;99.90
3262;DHT22;1643;47.746;9.000;2023-02-15T08:08:13;2.00;99.90
3262;DHT22;1643;47.746;9.000;2023-02-15T08:11:05;2.10;99.90
3262;DHT22;1643;47.746;9.000;2023-02-15T08:16:32;2.00;99.90
3262;DHT22;1643;47.746;9.000;2023-02-15T08:19:02;1.90;99.90
3262;DHT22;1643;47.746;9.000;2023-02-15T08:21:29;1.90;99.90
3262;DHT22;1643;47.746;9.000;2023-02-15T08:23:55;2.00;99.90
3262;DHT22;1643;47.746;9.000;2023-02-15T08:26:22;1.90;99.90
3262;DHT22;1643;47.746;9.000;2023-02-15T08:28:48;2.00;99.90
3262;DHT22;1643;47.746;9.000;2023-02-15T08:31:14;2.10;99.90
3262;DHT22;1643;47.746;9.000;2023-02-15T08:33:41;1.90;99.90
3262;DHT22;1643;47.746;9.000;2023-02-15T08:36:09;1.90;99.90
3262;DHT22;1643;47.746;9.000;2023-02-15T08:38:36;1.80;99.90
3262;DHT22;1643;47.746;9.000;2023-02-15T08:41:22;1.80;99.90
3262;DHT22;1643;47.746;9.000;2023-02-15T08:43:51;1.80;99.90
3262;DHT22;1643;47.746;9.000;2023-02-15T08:46:18;1.90;99.90
3262;DHT22;1643;47.746;9.000;2023-02-15T08:48:44;2.00;99.90
3262;DHT22;1643;47.746;9.000;2023-02-15T08:51:13;2.00;99.90
3262;DHT22;1643;47.746;9.000;2023-02-15T08:53:40;2.10;99.90
3262;DHT22;1643;47.746;9.000;2023-02-15T08:56:07;2.10;99.90
3262;DHT22;1643;47.746;9.000;2023-02-15T08:58:34;2.20;99.90
3262;DHT22;1643;47.746;9.000;2023-02-15T09:00:59;2.30;99.90
3262;DHT22;1643;47.746;9.000;2023-02-15T09:03:27;2.30;99.90
3262;DHT22;1643;47.746;9.000;2023-02-15T09:05:58;2.30;99.90
3262;DHT22;1643;47.746;9.000;2023-02-15T09:08:24;2.40;99.90
3262;DHT22;1643;47.746;9.000;2023-02-15T09:10:49;2.40;99.90
3262;DHT22;1643;47.746;9.000;2023-02-15T09:13:15;2.50;99.90
3262;DHT22;1643;47.746;9.000;2023-02-15T09:15:41;2.50;99.90
3262;DHT22;1643;47.746;9.000;2023-02-15T09:18:06;2.50;99.90
3262;DHT22;1643;47.746;9.000;2023-02-15T09:20:35;2.60;99.90
3262;DHT22;1643;47.746;9.000;2023-02-15T09:23:01;2.50;99.90
3262;DHT22;1643;47.746;9.000;2023-02-15T09:25:27;2.30;99.90
3262;DHT22;1643;47.746;9.000;2023-02-15T09:27:53;2.20;99.90
3262;DHT22;1643;47.746;9.000;2023-02-15T09:30:19;2.10;99.90
3262;DHT22;1643;47.746;9.000;2023-02-15T09:32:44;2.10;99.90
3262;DHT22;1643;47.746;9.000;2023-02-15T09:35:13;2.10;99.90
3262;DHT22;1643;47.746;9.000;2023-02-15T09:37:39;2.00;99.90
3262;DHT22;1643;47.746;9.000;2023-02-15T09:40:05;2.00;99.90
3262;DHT22;1643;47.746;9.000;2023-02-15T09:51:25;2.10;99.90
3262;DHT22;1643;47.746;9.000;2023-02-15T09:56:51;2.10;99.90
3262;DHT22;1643;47.746;9.000;2023-02-15T09:59:28;2.20;99.90
3262;DHT22;1643;47.746;9.000;2023-02-15T10:16:07;2.30;99.90
3262;DHT22;1643;47.746;9.000;2023-02-15T10:18:58;2.30;99.90
3262;DHT22;1643;47.746;9.000;2023-02-15T10:26:46;2.30;99.90
3262;DHT22;1643;47.746;9.000;2023-02-15T10:29:27;2.30;99.90
3262;DHT22;1643;47.746;9.000;2023-02-15T10:32:16;2.40;99.90
3262;DHT22;1643;47.746;9.000;2023-02-15T10:40:42;2.50;99.90
3262;DHT22;1643;47.746;9.000;2023-02-15T10:49:07;2.50;99.90
3262;DHT22;1643;47.746;9.000;2023-02-15T10:51:45;2.50;99.90
3262;DHT22;1643;47.746;9.000;2023-02-15T10:54:33;2.60;99.90
3262;DHT22;1643;47.746;9.000;2023-02-15T10:57:31;2.80;99.90
3262;DHT22;1643;47.746;9.000;2023-02-15T11:00:13;2.90;99.90
3262;DHT22;1643;47.746;9.000;2023-02-15T11:03:19;3.00;99.90
3262;DHT22;1643;47.746;9.000;2023-02-15T11:06:09;2.90;99.90
3262;DHT22;1643;47.746;9.000;2023-02-15T11:08:47;2.80;99.90
3262;DHT22;1643;47.746;9.000;2023-02-15T11:13:56;2.90;99.90
3262;DHT22;1643;47.746;9.000;2023-02-15T11:17:08;3.00;99.90
3262;DHT22;1643;47.746;9.000;2023-02-15T11:19:21;3.10;99.90
3262;DHT22;1643;47.746;9.000;2023-02-15T11:21:57;3.10;99.90
3262;DHT22;1643;47.746;9.000;2023-02-15T11:24:27;3.20;99.90
3262;DHT22;1643;47.746;9.000;2023-02-15T11:30:05;3.40;99.90
3262;DHT22;1643;47.746;9.000;2023-02-15T11:32:43;3.50;99.90
3262;DHT22;1643;47.746;9.000;2023-02-15T11:37:54;3.50;99.90
3262;DHT22;1643;47.746;9.000;2023-02-15T11:40:34;3.60;99.90
3262;DHT22;1643;47.746;9.000;2023-02-15T11:43:05;3.70;99.90
3262;DHT22;1643;47.746;9.000;2023-02-15T11:45:34;3.70;99.90
3262;DHT22;1643;47.746;9.000;2023-02-15T11:48:01;3.60;99.90
3262;DHT22;1643;47.746;9.000;2023-02-15T11:50:33;3.70;99.90
3262;DHT22;1643;47.746;9.000;2023-02-15T11:53:02;3.70;99.90
3262;DHT22;1643;47.746;9.000;2023-02-15T11:55:28;3.70;99.90
3262;DHT22;1643;47.746;9.000;2023-02-15T12:03:45;3.60;99.90
3262;DHT22;1643;47.746;9.000;2023-02-15T12:06:41;3.50;99.90
3262;DHT22;1643;47.746;9.000;2023-02-15T12:09:31;3.50;99.90
3262;DHT22;1643;47.746;9.000;2023-02-15T12:14:51;3.40;99.90
3262;DHT22;1643;47.746;9.000;2023-02-15T12:17:18;3.40;99.90
3262;DHT22;1643;47.746;9.000;2023-02-15T12:19:46;3.40;99.90
3262;DHT22;1643;47.746;9.000;2023-02-15T12:22:25;3.40;99.90
3262;DHT22;1643;47.746;9.000;2023-02-15T12:24:54;3.40;99.90
3262;DHT22;1643;47.746;9.000;2023-02-15T12:27:31;3.50;99.90
3262;DHT22;1643;47.746;9.000;2023-02-15T12:32:56;3.50;99.90
3262;DHT22;1643;47.746;9.000;2023-02-15T12:35:33;3.60;99.90
3262;DHT22;1643;47.746;9.000;2023-02-15T12:38:23;3.60;99.90
3262;DHT22;1643;47.746;9.000;2023-02-15T12:41:03;3.70;99.90
3262;DHT22;1643;47.746;9.000;2023-02-15T12:43:37;3.80;99.90
3262;DHT22;1643;47.746;9.000;2023-02-15T12:46:26;3.90;99.90
3262;DHT22;1643;47.746;9.000;2023-02-15T12:51:48;3.90;99.90
3262;DHT22;1643;47.746;9.000;2023-02-15T12:54:34;3.90;99.90
3262;DHT22;1643;47.746;9.000;2023-02-15T12:57:15;3.90;99.90
3262;DHT22;1643;47.746;9.000;2023-02-15T12:59:50;3.90;99.90
3262;DHT22;1643;47.746;9.000;2023-02-15T13:02:25;4.00;99.90
3262;DHT22;1643;47.746;9.000;2023-02-15T13:04:52;4.00;99.90
3262;DHT22;1643;47.746;9.000;2023-02-15T13:07:19;3.90;99.90
3262;DHT22;1643;47.746;9.000;2023-02-15T13:09:46;4.10;99.90
3262;DHT22;1643;47.746;9.000;2023-02-15T13:12:27;4.20;99.90
3262;DHT22;1643;47.746;9.000;2023-02-15T13:14:56;4.20;99.90
3262;DHT22;1643;47.746;9.000;2023-02-15T13:17:26;4.10;99.90
3262;DHT22;1643;47.746;9.000;2023-02-15T13:19:56;4.20;99.90
3262;DHT22;1643;47.746;9.000;2023-02-15T13:22:36;4.30;99.90
3262;DHT22;1643;47.746;9.000;2023-02-15T13:25:20;4.30;99.90
3262;DHT22;1643;47.746;9.000;2023-02-15T13:28:12;4.30;99.90
3262;DHT22;1643;47.746;9.000;2023-02-15T13:30:40;4.40;99.90
3262;DHT22;1643;47.746;9.000;2023-02-15T13:33:33;4.60;99.90
3262;DHT22;1643;47.746;9.000;2023-02-15T13:36:10;5.00;99.90
3262;DHT22;1643;47.746;9.000;2023-02-15T13:39:29;5.20;99.90
3262;DHT22;1643;47.746;9.000;2023-02-15T13:42:00;5.40;99.90
3262;DHT22;1643;47.746;9.000;2023-02-15T13:44:54;5.50;99.90
3262;DHT22;1643;47.746;9.000;2023-02-15T13:52:44;5.50;99.90
3262;DHT22;1643;47.746;9.000;2023-02-15T13:55:22;5.70;99.90
3262;DHT22;1643;47.746;9.000;2023-02-15T13:58:35;5.70;99.90
3262;DHT22;1643;47.746;9.000;2023-02-15T14:01:06;6.20;99.90
3262;DHT22;1643;47.746;9.000;2023-02-15T14:06:52;7.10;99.90
3262;DHT22;1643;47.746;9.000;2023-02-15T14:09:52;7.40;99.90
3262;DHT22;1643;47.746;9.000;2023-02-15T14:15:34;7.90;99.90
3262;DHT22;1643;47.746;9.000;2023-02-15T14:26:35;7.80;99.90
3262;DHT22;1643;47.746;9.000;2023-02-15T14:31:47;8.00;99.90
3262;DHT22;1643;47.746;9.000;2023-02-15T14:34:27;8.00;99.90
3262;DHT22;1643;47.746;9.000;2023-02-15T14:36:56;8.00;99.90
3262;DHT22;1643;47.746;9.000;2023-02-15T14:39:33;7.80;99.90
3262;DHT22;1643;47.746;9.000;2023-02-15T14:43:04;7.90;99.90
3262;DHT22;1643;47.746;9.000;2023-02-15T14:45:22;8.10;99.90
3262;DHT22;1643;47.746;9.000;2023-02-15T14:48:10;8.00;99.90
3262;DHT22;1643;47.746;9.000;2023-02-15T14:50:45;8.00;99.90
3262;DHT22;1643;47.746;9.000;2023-02-15T14:58:55;8.10;99.90
3262;DHT22;1643;47.746;9.000;2023-02-15T15:01:40;8.20;99.90
3262;DHT22;1643;47.746;9.000;2023-02-15T15:06:36;8.10;99.90
3262;DHT22;1643;47.746;9.000;2023-02-15T15:09:29;8.20;99.90
3262;DHT22;1643;47.746;9.000;2023-02-15T15:14:49;8.40;99.90
3262;DHT22;1643;47.746;9.000;2023-02-15T15:20:12;7.50;99.90
3262;DHT22;1643;47.746;9.000;2023-02-15T15:22:42;7.20;99.90
3262;DHT22;1643;47.746;9.000;2023-02-15T15:28:03;6.60;99.90
3262;DHT22;1643;47.746;9.000;2023-02-15T15:35:51;5.90;99.90
3262;DHT22;1643;47.746;9.000;2023-02-15T15:38:50;5.80;99.90
3262;DHT22;1643;47.746;9.000;2023-02-15T15:41:25;5.60;99.90
3262;DHT22;1643;47.746;9.000;2023-02-15T15:47:07;5.70;99.90
3262;DHT22;1643;47.746;9.000;2023-02-15T15:49:37;5.80;99.90
3262;DHT22;1643;47.746;9.000;2023-02-15T15:52:14;5.80;99.90
3262;DHT22;1643;47.746;9.000;2023-02-15T15:54:41;5.80;99.90
3262;DHT22;1643;47.746;9.000;2023-02-15T15:57:34;5.70;99.90
3262;DHT22;1643;47.746;9.000;2023-02-15T16:00:02;5.80;99.90
3262;DHT22;1643;47.746;9.000;2023-02-15T16:02:28;6.10;99.90
3262;DHT22;1643;47.746;9.000;2023-02-15T16:04:54;6.40;99.90
3262;DHT22;1643;47.746;9.000;2023-02-15T16:07:24;6.70;99.90
3262;DHT22;1643;47.746;9.000;2023-02-15T16:09:59;6.90;99.90
3262;DHT22;1643;47.746;9.000;2023-02-15T16:12:37;7.10;99.90
3262;DHT22;1643;47.746;9.000;2023-02-15T16:15:33;6.90;99.90
3262;DHT22;1643;47.746;9.000;2023-02-15T16:18:00;6.40;99.90
3262;DHT22;1643;47.746;9.000;2023-02-15T16:20:33;6.10;99.90
3262;DHT22;1643;47.746;9.000;2023-02-15T16:25:35;5.50;99.90
3262;DHT22;1643;47.746;9.000;2023-02-15T16:28:10;5.30;99.90
3262;DHT22;1643;47.746;9.000;2023-02-15T16:30:38;5.20;99.90
3262;DHT22;1643;47.746;9.000;2023-02-15T16:33:13;5.10;99.90
3262;DHT22;1643;47.746;9.000;2023-02-15T16:35:57;5.00;99.90
3262;DHT22;1643;47.746;9.000;2023-02-15T16:41:21;4.80;99.90
3262;DHT22;1643;47.746;9.000;2023-02-15T16:43:49;4.70;99.90
3262;DHT22;1643;47.746;9.000;2023-02-15T16:46:20;4.50;99.90
3262;DHT22;1643;47.746;9.000;2023-02-15T16:48:51;4.50;99.90
3262;DHT22;1643;47.746;9.000;2023-02-15T16:51:31;4.50;99.90
3262;DHT22;1643;47.746;9.000;2023-02-15T16:54:03;4.50;99.90
3262;DHT22;1643;47.746;9.000;2023-02-15T16:56:31;4.40;99.90
3262;DHT22;1643;47.746;9.000;2023-02-15T16:58:58;4.40;99.90
3262;DHT22;1643;47.746;9.000;2023-02-15T17:01:28;4.40;99.90
3262;DHT22;1643;47.746;9.000;2023-02-15T17:04:22;4.40;99.90
3262;DHT22;1643;47.746;9.000;2023-02-15T17:07:03;4.40;99.90
3262;DHT22;1643;47.746;9.000;2023-02-15T17:09:31;4.40;99.90
3262;DHT22;1643;47.746;9.000;2023-02-15T17:11:57;4.30;99.90
3262;DHT22;1643;47.746;9.000;2023-02-15T17:14:31;4.30;99.90
3262;DHT22;1643;47.746;9.000;2023-02-15T17:17:11;4.40;99.90
3262;DHT22;1643;47.746;9.000;2023-02-15T17:19:47;4.40;99.90
3262;DHT22;1643;47.746;9.000;2023-02-15T17:22:23;4.10;99.90
3262;DHT22;1643;47.746;9.000;2023-02-15T17:24:58;3.80;99.90
3262;DHT22;1643;47.746;9.000;2023-02-15T17:27:26;3.50;99.90
3262;DHT22;1643;47.746;9.000;2023-02-15T17:30:26;3.40;99.90
3262;DHT22;1643;47.746;9.000;2023-02-15T17:32:55;3.60;99.90
3262;DHT22;1643;47.746;9.000;2023-02-15T17:35:24;3.70;99.90
3262;DHT22;1643;47.746;9.000;2023-02-15T17:38:20;3.70;99.90
3262;DHT22;1643;47.746;9.000;2023-02-15T17:40:45;3.70;99.90
3262;DHT22;1643;47.746;9.000;2023-02-15T17:43:11;3.70;99.90
3262;DHT22;1643;47.746;9.000;2023-02-15T17:45:47;3.70;99.90
3262;DHT22;1643;47.746;9.000;2023-02-15T17:48:31;3.60;99.90
3262;DHT22;1643;47.746;9.000;2023-02-15T17:51:01;3.60;99.90
3262;DHT22;1643;47.746;9.000;2023-02-15T17:53:28;3.60;99.90
3262;DHT22;1643;47.746;9.000;2023-02-15T17:55:54;3.50;99.90
3262;DHT22;1643;47.746;9.000;2023-02-15T17:58:20;3.50;99.90
3262;DHT22;1643;47.746;9.000;2023-02-15T18:00:51;3.50;99.90
3262;DHT22;1643;47.746;9.000;2023-02-15T18:03:45;3.50;99.90
3262;DHT22;1643;47.746;9.000;2023-02-15T18:06:30;3.40;99.90
3262;DHT22;1643;47.746;9.000;2023-02-15T18:09:16;3.40;99.90
3262;DHT22;1643;47.746;9.000;2023-02-15T18:12:01;3.40;99.90
3262;DHT22;1643;47.746;9.000;2023-02-15T18:14:27;3.40;99.90
3262;DHT22;1643;47.746;9.000;2023-02-15T18:16:53;3.40;99.90
3262;DHT22;1643;47.746;9.000;2023-02-15T18:19:26;3.20;99.90
3262;DHT22;1643;47.746;9.000;2023-02-15T18:21:52;3.10;99.90
3262;DHT22;1643;47.746;9.000;2023-02-15T18:24:22;3.10;99.90
3262;DHT22;1643;47.746;9.000;2023-02-15T18:26:52;3.10;99.90
3262;DHT22;1643;47.746;9.000;2023-02-15T18:29:18;3.10;99.90
3262;DHT22;1643;47.746;9.000;2023-02-15T18:31:45;3.10;99.90
3262;DHT22;1643;47.746;9.000;2023-02-15T18:34:41;3.10;99.90
3262;DHT22;1643;47.746;9.000;2023-02-15T18:37:16;3.00;99.90
3262;DHT22;1643;47.746;9.000;2023-02-15T18:39:45;2.70;99.90
3262;DHT22;1643;47.746;9.000;2023-02-15T18:42:29;2.70;99.90
3262;DHT22;1643;47.746;9.000;2023-02-15T18:47:40;2.70;99.90
3262;DHT22;1643;47.746;9.000;2023-02-15T18:50:06;2.70;99.90
3262;DHT22;1643;47.746;9.000;2023-02-15T18:52:35;2.90;99.90
3262;DHT22;1643;47.746;9.000;2023-02-15T18:55:04;2.80;99.90
3262;DHT22;1643;47.746;9.000;2023-02-15T18:57:37;2.70;99.90
3262;DHT22;1643;47.746;9.000;2023-02-15T19:00:03;2.70;99.90
3262;DHT22;1643;47.746;9.000;2023-02-15T19:02:30;2.80;99.90
3262;DHT22;1643;47.746;9.000;2023-02-15T19:04:55;2.80;99.90
3262;DHT22;1643;47.746;9.000;2023-02-15T19:07:24;2.80;99.90
3262;DHT22;1643;47.746;9.000;2023-02-15T19:09:57;2.80;99.90
3262;DHT22;1643;47.746;9.000;2023-02-15T19:12:24;2.90;99.90
3262;DHT22;1643;47.746;9.000;2023-02-15T19:14:50;2.80;99.90
3262;DHT22;1643;47.746;9.000;2023-02-15T19:17:19;2.80;99.90
3262;DHT22;1643;47.746;9.000;2023-02-15T19:19:46;2.80;99.90
3262;DHT22;1643;47.746;9.000;2023-02-15T19:22:35;2.80;99.90
3262;DHT22;1643;47.746;9.000;2023-02-15T19:25:02;2.80;99.90
3262;DHT22;1643;47.746;9.000;2023-02-15T19:27:32;2.80;99.90
3262;DHT22;1643;47.746;9.000;2023-02-15T19:30:09;2.70;99.90
3262;DHT22;1643;47.746;9.000;2023-02-15T19:32:37;2.70;99.90
3262;DHT22;1643;47.746;9.000;2023-02-15T19:35:03;2.80;99.90
3262;DHT22;1643;47.746;9.000;2023-02-15T19:37:34;2.80;99.90